Time;durP1;ratioP1;P1;durP2;ratioP2;P2;SDS_P1;SDS_P2;PMS_P1;PMS_P2;Temp;Humidity;BMP_temperature;BMP_pressure;BME280_temperature;BME280_humidity;BME280_pressure;Samples;Min_cycle;Max_cycle;Signal;HPM_P1;HPM_P2
2023/01/02 00:02:40;;;;;;;4.40;2.20;;;;;;;18.88;58.44;97243.50;10331278;28;20058;-52
2023/01/02 00:08:00;;;;;;;2.92;2.25;;;;;;;18.86;58.28;97230.31;10319516;28;20529;-52
2023/01/02 00:13:19;;;;;;;3.72;2.33;;;;;;;18.86;58.36;97234.94;10324999;28;20073;-51
2023/01/02 00:18:39;;;;;;;2.50;2.28;;;;;;;18.85;58.22;97217.91;10332139;28;20058;-52
2023/01/02 00:24:01;;;;;;;3.13;1.90;;;;;;;18.84;58.14;97218.25;10331879;28;20058;-52
2023/01/02 00:29:20;;;;;;;2.90;2.30;;;;;;;18.83;58.03;97219.34;10331641;28;20054;-52
2023/01/02 00:34:40;;;;;;;3.58;2.47;;;;;;;18.83;58.09;97227.44;10305111;28;20510;-52
2023/01/02 00:40:00;;;;;;;3.50;2.40;;;;;;;18.82;58.08;97231.22;10343198;28;20050;-52
2023/01/02 00:45:19;;;;;;;2.97;2.30;;;;;;;18.80;58.06;97225.34;10344221;28;20055;-52
2023/01/02 00:50:39;;;;;;;4.10;2.15;;;;;;;18.80;57.99;97214.53;10331228;28;20418;-52
2023/01/02 00:55:58;;;;;;;4.60;2.58;;;;;;;18.78;57.86;97212.94;10320273;28;20058;-52
2023/01/02 01:01:17;;;;;;;3.33;2.35;;;;;;;18.78;57.99;97212.16;10309708;28;20573;-52
2023/01/02 01:06:37;;;;;;;3.50;2.22;;;;;;;18.77;58.03;97207.84;10319575;28;20128;-52
2023/01/02 01:11:56;;;;;;;3.90;2.10;;;;;;;18.75;57.97;97199.25;10314890;28;20065;-52
2023/01/02 01:17:15;;;;;;;3.17;2.17;;;;;;;18.75;58.03;97197.34;10334147;28;20050;-51
2023/01/02 01:22:35;;;;;;;3.08;2.13;;;;;;;18.74;57.96;97201.16;10325674;28;20089;-52
2023/01/02 01:27:54;;;;;;;2.90;2.17;;;;;;;18.73;58.04;97198.78;10334661;28;20054;-52
2023/01/02 01:33:13;;;;;;;2.83;2.05;;;;;;;18.72;57.86;97191.78;10312500;28;20393;-52
2023/01/02 01:38:33;;;;;;;3.25;2.10;;;;;;;18.71;57.85;97190.97;10334214;28;20105;-51
2023/01/02 01:43:57;;;;;;;2.65;2.03;;;;;;;18.70;57.78;97194.78;10304771;28;20109;-51
2023/01/02 01:49:27;;;;;;;2.03;1.83;;;;;;;18.70;57.93;97189.41;10330726;28;20062;-53
2023/01/02 01:54:54;;;;;;;2.88;1.90;;;;;;;18.69;57.82;97185.09;10297671;28;20062;-53
2023/01/02 02:00:14;;;;;;;2.78;2.05;;;;;;;18.68;57.81;97174.59;10303606;28;20051;-51
2023/01/02 02:05:35;;;;;;;2.30;2.10;;;;;;;18.66;57.87;97183.03;10314670;28;20530;-52
2023/01/02 02:10:54;;;;;;;2.13;1.92;;;;;;;18.66;57.76;97180.31;10309035;28;20059;-52
2023/01/02 02:16:14;;;;;;;2.78;1.92;;;;;;;18.66;57.76;97176.81;10316348;28;20046;-51
2023/01/02 02:21:58;;;;;;;2.58;2.00;;;;;;;18.65;57.65;97172.53;10348295;28;20042;-52
2023/01/02 02:27:39;;;;;;;3.35;2.17;;;;;;;18.63;57.77;97162.03;10348296;28;20054;-53
2023/01/02 02:33:21;;;;;;;2.45;1.88;;;;;;;18.63;57.62;97162.03;10300715;28;20101;-51
2023/01/02 02:38:50;;;;;;;2.67;2.20;;;;;;;18.63;57.61;97143.16;10335236;28;20058;-52
2023/01/02 02:44:26;;;;;;;2.67;2.08;;;;;;;18.60;57.46;97146.47;10338939;28;20062;-53
2023/01/02 02:49:56;;;;;;;2.85;2.17;;;;;;;18.61;57.51;97141.88;10334864;28;20530;-52
2023/01/02 02:55:45;;;;;;;2.53;1.92;;;;;;;18.60;57.46;97149.16;10334563;28;20069;-52
2023/01/02 03:01:13;;;;;;;2.80;2.10;;;;;;;18.59;57.52;97152.97;10334158;28;20066;-52
2023/01/02 03:06:43;;;;;;;2.43;1.97;;;;;;;18.58;57.39;97167.56;10319436;28;20108;-52
2023/01/02 03:12:26;;;;;;;2.30;2.00;;;;;;;18.57;57.53;97174.06;10333780;28;20058;-52
2023/01/02 03:18:02;;;;;;;2.97;2.00;;;;;;;18.56;57.36;97183.25;10318890;28;20054;-52
2023/01/02 03:23:24;;;;;;;2.35;2.03;;;;;;;18.56;57.28;97186.78;10331427;28;20509;-53
2023/01/02 03:28:46;;;;;;;2.75;2.08;;;;;;;18.54;57.30;97185.47;10317999;28;20082;-52
2023/01/02 03:34:09;;;;;;;1.88;1.70;;;;;;;18.54;57.21;97182.78;10312836;28;20057;-52
2023/01/02 03:39:31;;;;;;;2.20;1.80;;;;;;;18.53;57.24;97190.06;10345886;28;20054;-52
2023/01/02 03:45:05;;;;;;;2.17;1.95;;;;;;;18.52;57.24;97185.81;10333105;28;20422;-53
2023/01/02 03:50:46;;;;;;;2.75;2.13;;;;;;;18.51;57.25;97194.19;10327172;28;20066;-51
2023/01/02 03:56:11;;;;;;;2.13;1.92;;;;;;;18.50;57.23;97173.69;10318156;28;20066;-52
2023/01/02 04:01:47;;;;;;;2.63;2.03;;;;;;;18.49;57.28;97172.91;10331974;28;20065;-52
2023/01/02 04:07:11;;;;;;;1.73;1.60;;;;;;;18.49;57.28;97169.44;10317519;28;20058;-52
2023/01/02 04:12:35;;;;;;;2.13;1.92;;;;;;;18.48;57.14;97167.81;10317140;28;20061;-53
2023/01/02 04:18:08;;;;;;;1.83;1.70;;;;;;;18.47;57.07;97158.16;10317230;28;20062;-52
2023/01/02 04:23:32;;;;;;;2.22;1.92;;;;;;;18.46;57.01;97151.16;10317590;28;20054;-52
2023/01/02 04:28:52;;;;;;;2.10;1.90;;;;;;;18.45;57.14;97155.75;10345129;28;20490;-52
2023/01/02 04:34:14;;;;;;;2.08;1.88;;;;;;;18.45;57.15;97171.16;10325582;28;20055;-52
2023/01/02 04:39:36;;;;;;;2.05;1.70;;;;;;;18.44;57.03;97153.34;10324307;28;20055;-52
2023/01/02 04:44:56;;;;;;;2.50;1.92;;;;;;;18.44;57.13;97153.34;10325032;28;20062;-52
2023/01/02 04:50:15;;;;;;;2.10;1.90;;;;;;;18.42;57.25;97142.88;10339303;28;20058;-53
2023/01/02 04:55:36;;;;;;;2.00;1.80;;;;;;;18.42;56.99;97142.06;10339029;28;20085;-52
2023/01/02 05:00:55;;;;;;;2.42;1.90;;;;;;;18.41;57.06;97137.81;10338668;28;20055;-52
2023/01/02 05:06:15;;;;;;;2.90;1.85;;;;;;;18.40;57.19;97136.19;10338228;28;20537;-52
2023/01/02 05:11:34;;;;;;;3.05;1.98;;;;;;;18.38;57.02;97123.84;10337798;28;20526;-53
2023/01/02 05:16:54;;;;;;;2.08;1.88;;;;;;;18.38;57.23;97104.94;10337457;28;20062;-52
2023/01/02 05:27:53;;;;;;;3.17;2.13;;;;;;;18.37;57.11;97095.25;10336949;28;20069;-52
2023/01/02 05:33:12;;;;;;;3.17;1.80;;;;;;;18.36;57.04;97093.66;10331768;28;20081;-51
2023/01/02 05:38:32;;;;;;;2.67;1.90;;;;;;;18.35;57.03;97107.47;10337044;28;20058;-52
2023/01/02 05:43:53;;;;;;;2.72;2.10;;;;;;;18.35;57.12;97093.97;10337107;28;20062;-53
2023/01/02 05:49:13;;;;;;;2.47;2.00;;;;;;;18.36;57.03;97096.34;10335638;28;20050;-52
2023/01/02 05:54:32;;;;;;;3.65;1.98;;;;;;;18.35;56.86;97092.06;10336938;28;20081;-51
2023/01/02 05:59:51;;;;;;;2.05;1.85;;;;;;;18.36;56.78;97099.03;10336176;28;20426;-52
2023/01/02 06:05:11;;;;;;;2.17;1.80;;;;;;;18.36;56.82;97090.94;10336530;28;20058;-52
2023/01/02 06:10:30;;;;;;;2.00;1.77;;;;;;;18.36;56.71;97093.66;10336005;28;20054;-52
2023/01/02 06:15:50;;;;;;;3.38;1.80;;;;;;;18.40;56.74;97109.22;10338325;28;20050;-53
2023/01/02 06:21:12;;;;;;;2.30;2.00;;;;;;;18.41;56.71;97089.25;10348759;28;20054;-51
2023/01/02 06:26:31;;;;;;;1.83;1.70;;;;;;;18.42;56.53;97086.22;10335676;28;20507;-53
2023/01/02 06:31:51;;;;;;;2.63;2.00;;;;;;;18.44;56.53;97102.09;10319267;28;20529;-52
2023/01/02 06:37:10;;;;;;;2.10;1.90;;;;;;;18.45;56.48;97128.00;10322595;28;20422;-52
2023/01/02 06:42:30;;;;;;;1.95;1.75;;;;;;;18.46;56.53;97133.06;10348058;28;20117;-50
2023/01/02 06:47:56;;;;;;;2.03;1.90;;;;;;;18.49;56.49;97134.34;10333799;28;20058;-52
2023/01/02 06:53:18;;;;;;;2.17;1.73;;;;;;;18.51;56.32;97116.75;10334163;28;20411;-53
2023/01/02 06:58:38;;;;;;;1.98;1.80;;;;;;;18.53;56.52;97119.94;10334249;28;20046;-53
2023/01/02 07:03:57;;;;;;;1.98;1.80;;;;;;;18.55;56.35;97125.03;10333542;28;20167;-53
2023/01/02 07:09:17;;;;;;;1.95;1.70;;;;;;;18.56;56.32;97135.50;10331692;28;20066;-53
2023/01/02 07:14:36;;;;;;;1.95;1.70;;;;;;;18.58;56.30;97133.31;10338193;28;20124;-53
2023/01/02 07:19:55;;;;;;;1.90;1.77;;;;;;;18.61;56.41;97142.66;10332621;28;20142;-53
2023/01/02 07:25:15;;;;;;;2.05;1.85;;;;;;;18.65;56.40;97153.66;10330748;28;20101;-53
2023/01/02 07:30:35;;;;;;;9.55;6.78;;;;;;;18.08;47.44;97162.31;10332967;28;20065;-53
2023/01/02 07:35:58;;;;;;;3.30;3.00;;;;;;;18.19;51.44;97169.06;10327174;28;20058;-53
2023/01/02 07:41:20;;;;;;;5.00;2.90;;;;;;;18.36;52.85;97168.38;10330244;28;20069;-53
2023/01/02 07:46:39;;;;;;;4.72;3.50;;;;;;;18.48;53.31;97170.53;10330836;28;20102;-52
2023/01/02 07:51:58;;;;;;;4.40;3.40;;;;;;;18.55;53.34;97149.31;10328358;28;20054;-53
2023/01/02 07:57:18;;;;;;;3.63;3.15;;;;;;;18.62;53.61;97181.22;10329243;28;20062;-52
2023/01/02 08:02:37;;;;;;;3.95;3.03;;;;;;;18.66;53.74;97190.31;10315900;28;20054;-53
2023/01/02 08:07:56;;;;;;;5.57;3.25;;;;;;;18.70;53.76;97197.50;10332168;28;20054;-52
2023/01/02 08:13:16;;;;;;;3.63;2.78;;;;;;;18.74;53.78;97200.38;10334437;28;20063;-53
2023/01/02 08:18:35;;;;;;;4.53;3.40;;;;;;;18.77;53.93;97188.94;10345765;28;20058;-53
2023/01/02 08:23:55;;;;;;;3.33;2.80;;;;;;;18.81;54.04;97178.38;10345730;28;20051;-52
2023/01/02 08:29:14;;;;;;;3.85;3.00;;;;;;;18.84;54.16;97183.94;10345487;28;20065;-54
2023/01/02 08:34:35;;;;;;;3.30;2.78;;;;;;;18.87;54.31;97169.03;10339380;28;20062;-51
2023/01/02 08:39:55;;;;;;;3.03;2.58;;;;;;;18.91;54.50;97175.38;10344736;28;20057;-52
2023/01/02 08:45:15;;;;;;;3.20;2.50;;;;;;;18.94;54.54;97188.28;10357948;28;20606;-53
2023/01/02 08:50:35;;;;;;;3.10;2.80;;;;;;;18.97;54.66;97184.94;10358043;28;20109;-54
2023/01/02 08:55:54;;;;;;;3.42;2.58;;;;;;;18.99;54.88;97177.31;10344930;28;20062;-53
2023/01/02 09:01:13;;;;;;;5.75;2.72;;;;;;;19.02;55.17;97179.41;10344942;28;20054;-53
2023/01/02 09:06:35;;;;;;;3.60;2.60;;;;;;;19.05;55.12;97184.22;10344798;28;20062;-53
2023/01/02 09:11:54;;;;;;;3.00;2.70;;;;;;;19.07;55.19;97176.59;10342523;28;20054;-53
2023/01/02 09:17:14;;;;;;;3.05;2.58;;;;;;;19.10;55.21;97183.25;10344646;28;20062;-53
2023/01/02 09:22:33;;;;;;;3.15;2.15;;;;;;;19.12;55.40;97203.44;10354719;28;20082;-52
2023/01/02 09:27:52;;;;;;;3.25;2.80;;;;;;;19.16;55.48;97204.41;10337957;28;20061;-54
2023/01/02 09:33:12;;;;;;;2.90;2.50;;;;;;;19.18;55.60;97201.41;10332471;28;20438;-53
2023/01/02 09:38:31;;;;;;;3.00;2.60;;;;;;;19.21;55.48;97194.56;10337385;28;20458;-53
2023/01/02 09:43:55;;;;;;;3.03;2.35;;;;;;;19.23;55.39;97200.47;10337256;28;20124;-54
2023/01/02 09:49:17;;;;;;;2.30;2.10;;;;;;;19.25;55.37;97187.44;10337057;28;20054;-53
2023/01/02 09:54:38;;;;;;;4.32;3.92;;;;;;;19.27;54.70;97196.84;10320276;28;20442;-53
2023/01/02 10:00:16;;;;;;;6.05;5.18;;;;;;;19.10;45.99;97185.97;10308120;28;20133;-54
2023/01/02 10:05:41;;;;;;;4.70;4.22;;;;;;;19.08;48.74;97188.97;10335654;28;20506;-54
2023/01/02 10:11:03;;;;;;;4.32;3.92;;;;;;;19.13;50.14;97163.72;10332560;28;20062;-53
2023/01/02 10:16:30;;;;;;;4.63;4.10;;;;;;;19.20;49.81;97169.47;10336920;28;20395;-54
2023/01/02 10:21:53;;;;;;;4.90;3.90;;;;;;;19.24;50.05;97170.44;10320940;28;20512;-53
2023/01/02 10:27:17;;;;;;;4.25;3.60;;;;;;;19.27;50.25;97166.34;10320636;28;20066;-54
2023/01/02 10:32:37;;;;;;;4.05;3.38;;;;;;;19.29;50.46;97167.59;10325413;28;20063;-54
2023/01/02 10:37:57;;;;;;;3.92;3.50;;;;;;;19.31;50.47;97153.78;10282153;28;20054;-53
2023/01/02 10:43:17;;;;;;;4.38;3.78;;;;;;;19.33;50.60;97143.47;10333212;28;20050;-54
2023/01/02 10:48:37;;;;;;;4.25;3.65;;;;;;;19.35;50.71;97152.84;10319804;28;20058;-55
2023/01/02 10:54:05;;;;;;;3.72;3.22;;;;;;;19.38;50.78;97162.22;10325623;28;20062;-54
2023/01/02 10:59:27;;;;;;;3.73;3.43;;;;;;;19.40;50.35;97137.59;10334530;28;20055;-55
2023/01/02 11:04:50;;;;;;;3.58;3.28;;;;;;;19.41;50.63;97131.88;10333910;28;20509;-55
2023/01/02 11:10:22;;;;;;;4.15;3.45;;;;;;;19.42;50.80;97127.28;10324164;28;20097;-54
2023/01/02 11:15:49;;;;;;;5.00;3.30;;;;;;;19.43;50.91;97135.06;10301879;28;20058;-55
2023/01/02 11:21:08;;;;;;;4.10;3.35;;;;;;;19.46;50.99;97128.22;10306307;28;20399;-54
2023/01/02 11:26:29;;;;;;;4.10;3.70;;;;;;;19.49;51.06;97120.28;10333298;28;20062;-54
2023/01/02 11:31:51;;;;;;;3.65;3.30;;;;;;;19.49;51.10;97117.59;10333393;28;20058;-55
2023/01/02 11:37:11;;;;;;;4.38;3.90;;;;;;;19.51;51.13;97115.38;10333041;28;20446;-54
2023/01/02 11:48:22;;;;;;;4.05;3.40;;;;;;;19.54;51.28;97106.63;10318916;28;20506;-54
2023/01/02 11:53:46;;;;;;;4.20;3.63;;;;;;;19.55;51.41;97116.31;10317398;28;20065;-54
2023/01/02 11:59:17;;;;;;;4.65;3.53;;;;;;;19.56;51.53;97117.94;10332072;28;20411;-55
2023/01/02 12:04:36;;;;;;;4.00;3.60;;;;;;;19.59;51.57;97121.09;10332361;28;20062;-54
2023/01/02 12:10:03;;;;;;;5.47;3.35;;;;;;;19.60;51.65;97110.00;10344701;28;20108;-53
2023/01/02 12:15:23;;;;;;;7.13;4.25;;;;;;;19.62;52.06;97106.94;10331174;28;20058;-53
2023/01/02 12:21:02;;;;;;;10.18;3.92;;;;;;;19.63;52.80;97120.16;10331091;28;20055;-54
2023/01/02 12:26:55;;;;;;;7.00;4.60;;;;;;;19.66;53.81;97111.41;10331427;28;20058;-54
2023/01/02 12:32:37;;;;;;;10.32;6.55;;;;;;;19.69;54.34;97118.88;10294319;28;20073;-54
2023/01/02 12:37:57;;;;;;;10.23;6.70;;;;;;;19.71;55.18;97123.97;10331578;28;20061;-54
2023/01/02 12:43:26;;;;;;;10.75;6.05;;;;;;;19.74;55.74;97142.31;10342375;28;20057;-53
2023/01/02 12:49:14;;;;;;;8.60;5.50;;;;;;;19.75;56.20;97136.56;10344220;28;20054;-53
2023/01/02 12:54:36;;;;;;;9.25;5.45;;;;;;;19.76;56.47;97129.25;10307364;28;20066;-54
2023/01/02 13:00:20;;;;;;;6.97;5.32;;;;;;;19.77;56.55;97128.13;10351142;28;20050;-53
2023/01/02 13:05:44;;;;;;;9.25;4.80;;;;;;;19.78;56.32;97140.56;10337632;28;20081;-51
2023/01/02 13:11:06;;;;;;;6.25;4.50;;;;;;;19.79;56.25;97139.44;10330388;28;20520;-54
2023/01/02 13:16:26;;;;;;;6.28;4.63;;;;;;;19.80;56.05;97143.72;10338846;28;20050;-54
2023/01/02 13:21:50;;;;;;;8.13;4.18;;;;;;;19.81;55.95;97131.00;10334903;28;20411;-52
2023/01/02 13:27:10;;;;;;;7.13;4.50;;;;;;;19.80;55.78;97130.22;10327483;28;20047;-52
2023/01/02 13:32:30;;;;;;;5.47;4.40;;;;;;;19.80;55.76;97126.69;10350543;28;20054;-51
2023/01/02 13:37:52;;;;;;;6.97;4.53;;;;;;;19.81;55.75;97118.28;10350628;28;20499;-54
2023/01/02 13:43:17;;;;;;;7.22;4.30;;;;;;;19.81;55.97;97115.56;10336415;28;20062;-54
2023/01/02 13:48:47;;;;;;;7.10;4.18;;;;;;;19.82;55.92;97119.09;10320754;28;20058;-54
2023/01/02 13:54:16;;;;;;;6.15;4.20;;;;;;;19.83;55.98;97126.84;10322275;28;20145;-54
2023/01/02 13:59:50;;;;;;;6.85;3.78;;;;;;;19.82;55.88;97140.72;10322459;28;20062;-54
2023/01/02 14:05:47;;;;;;;4.63;3.85;;;;;;;19.81;55.92;97139.91;10336050;28;20514;-53
2023/01/02 14:11:09;;;;;;;6.07;3.90;;;;;;;19.82;55.81;97135.31;10335508;28;20058;-54
2023/01/02 14:17:02;;;;;;;6.45;4.10;;;;;;;19.81;55.65;97145.31;10331219;28;20062;-50
2023/01/02 14:22:22;;;;;;;8.55;3.60;;;;;;;19.79;55.71;97161.06;10333002;28;20454;-51
2023/01/02 14:28:02;;;;;;;6.60;3.83;;;;;;;19.79;55.88;97163.75;10334612;28;20525;-51
2023/01/02 14:33:32;;;;;;;4.25;3.83;;;;;;;19.79;55.91;97171.88;10334917;28;20081;-51
2023/01/02 14:38:54;;;;;;;6.57;3.78;;;;;;;19.79;55.94;97185.38;10335359;28;20058;-50
2023/01/02 14:44:14;;;;;;;3.83;3.42;;;;;;;19.78;56.20;97183.00;10331332;28;20190;-49
2023/01/02 14:49:33;;;;;;;7.07;4.00;;;;;;;19.79;56.22;97195.41;10319245;28;20387;-55
2023/01/02 14:54:59;;;;;;;4.95;3.50;;;;;;;19.77;56.25;97190.31;10347263;28;20467;-54
2023/01/02 15:00:23;;;;;;;5.03;3.20;;;;;;;19.78;56.39;97200.03;10332530;28;20476;-54
2023/01/02 15:05:56;;;;;;;6.13;3.30;;;;;;;19.76;56.36;97196.84;10333966;28;20077;-53
2023/01/02 15:16:59;;;;;;;5.75;3.08;;;;;;;19.76;56.52;97202.25;10333962;28;20462;-54
2023/01/02 15:22:22;;;;;;;4.80;3.72;;;;;;;19.75;56.58;97214.16;10331959;28;20062;-51
2023/01/02 15:27:42;;;;;;;5.38;3.15;;;;;;;19.75;56.74;97216.88;10333192;28;20077;-53
2023/01/02 15:33:01;;;;;;;4.72;3.58;;;;;;;19.73;56.81;97202.88;10331507;28;20054;-53
2023/01/02 15:38:21;;;;;;;5.90;3.28;;;;;;;19.72;56.78;97196.69;10333606;28;20054;-54
2023/01/02 15:49:20;;;;;;;6.30;3.63;;;;;;;19.72;56.97;97202.09;10332792;28;20058;-53
2023/01/02 15:54:40;;;;;;;5.82;3.35;;;;;;;19.72;56.89;97206.69;10332361;28;20414;-54
2023/01/02 16:00:00;;;;;;;6.03;3.60;;;;;;;19.71;56.38;97205.88;10331490;28;20507;-55
2023/01/02 16:05:19;;;;;;;4.88;3.50;;;;;;;19.69;56.70;97207.28;10317166;28;20066;-54
2023/01/02 16:10:43;;;;;;;3.90;3.08;;;;;;;19.70;56.89;97192.69;10345330;28;20077;-53
2023/01/02 16:16:04;;;;;;;4.38;2.83;;;;;;;19.68;56.87;97206.50;10312759;28;20054;-51
2023/01/02 16:21:28;;;;;;;4.25;3.50;;;;;;;19.67;57.00;97210.28;10331409;28;20069;-54
2023/01/02 16:26:48;;;;;;;4.28;3.35;;;;;;;19.67;57.14;97214.91;10344308;28;20057;-55
2023/01/02 16:32:45;;;;;;;4.65;3.00;;;;;;;19.66;57.15;97222.25;10334191;28;20054;-55
2023/01/02 16:38:24;;;;;;;4.22;2.83;;;;;;;19.64;57.04;97226.34;10324801;28;20499;-57
2023/01/02 16:43:45;;;;;;;4.63;3.45;;;;;;;19.64;56.74;97218.22;10322656;28;20059;-56
2023/01/02 16:49:10;;;;;;;3.78;3.38;;;;;;;19.62;56.88;97223.97;10334602;28;20077;-53
2023/01/02 16:54:33;;;;;;;3.58;3.05;;;;;;;19.62;56.79;97234.78;10337505;28;20065;-54
2023/01/02 16:59:52;;;;;;;5.13;3.45;;;;;;;19.61;57.09;97246.69;10337196;28;20062;-48
2023/01/02 17:05:17;;;;;;;3.67;3.03;;;;;;;19.60;57.21;97255.94;10338747;28;20112;-53
2023/01/02 17:10:36;;;;;;;4.32;2.90;;;;;;;19.60;57.17;97264.03;10338706;28;20062;-52
2023/01/02 17:15:56;;;;;;;3.65;3.00;;;;;;;19.59;57.06;97283.25;10337388;28;20071;-53
2023/01/02 17:21:15;;;;;;;3.90;2.92;;;;;;;19.59;57.32;97296.78;10322691;28;20498;-55
2023/01/02 17:26:35;;;;;;;4.60;3.08;;;;;;;19.57;57.48;97302.47;10336447;28;20073;-55
2023/01/02 17:31:55;;;;;;;4.00;3.28;;;;;;;19.55;57.42;97313.59;10336165;28;20050;-52
2023/01/02 17:37:15;;;;;;;4.07;2.90;;;;;;;19.55;57.50;97310.09;10335948;28;20065;-48
2023/01/02 17:42:35;;;;;;;3.05;2.75;;;;;;;19.54;57.73;97317.44;10323940;28;20050;-52
2023/01/02 17:47:55;;;;;;;3.60;2.97;;;;;;;19.53;57.54;97313.13;10319660;28;20062;-53
2023/01/02 17:53:14;;;;;;;4.45;3.05;;;;;;;19.52;57.46;97322.34;10343257;28;20055;-53
2023/01/02 17:58:35;;;;;;;3.17;2.78;;;;;;;19.51;57.77;97323.44;10320150;28;20050;-50
2023/01/02 18:03:55;;;;;;;5.18;2.85;;;;;;;19.51;57.94;97328.84;10331050;28;20062;-50
2023/01/02 18:09:15;;;;;;;3.85;2.92;;;;;;;19.50;57.78;97329.97;10321073;28;20058;-51
2023/01/02 18:14:36;;;;;;;3.80;2.80;;;;;;;19.49;57.88;97327.56;10334962;28;20050;-52
2023/01/02 18:19:56;;;;;;;4.15;2.92;;;;;;;19.47;57.96;97322.47;10346456;28;20053;-54
2023/01/02 18:25:23;;;;;;;4.47;2.90;;;;;;;19.45;56.49;97324.69;10335653;28;20069;-53
2023/01/02 18:30:43;;;;;;;3.20;2.67;;;;;;;19.44;57.20;97317.66;10348407;28;20053;-50
2023/01/02 18:36:15;;;;;;;3.20;2.85;;;;;;;19.44;57.29;97319.59;10337252;28;20110;-51
2023/01/02 18:41:35;;;;;;;3.90;2.80;;;;;;;19.43;57.34;97323.41;10333082;28;20061;-51
2023/01/02 18:47:00;;;;;;;3.45;3.08;;;;;;;19.42;57.42;97321.81;10323117;28;20406;-54
2023/01/02 18:52:26;;;;;;;3.67;2.90;;;;;;;19.42;57.08;97346.91;10334048;28;20154;-56
2023/01/02 18:57:47;;;;;;;4.63;2.90;;;;;;;19.41;57.07;97348.03;10347146;28;20084;-53
2023/01/02 19:03:07;;;;;;;3.28;2.97;;;;;;;19.41;57.16;97352.66;10334102;28;20090;-57
2023/01/02 19:08:35;;;;;;;3.92;2.92;;;;;;;19.38;57.26;97356.75;10347139;28;20050;-55
2023/01/02 19:13:55;;;;;;;2.95;2.65;;;;;;;19.38;57.47;97348.63;10341397;28;20506;-55
2023/01/02 19:19:16;;;;;;;3.78;2.90;;;;;;;19.38;57.52;97355.94;10330396;28;20054;-57
2023/01/02 19:24:36;;;;;;;2.88;2.58;;;;;;;19.37;57.43;97352.47;10323892;28;20047;-55
2023/01/02 19:29:56;;;;;;;4.15;2.70;;;;;;;19.36;57.41;97364.34;10327574;28;20058;-54
2023/01/02 19:35:28;;;;;;;3.03;2.50;;;;;;;19.34;57.46;97371.97;10329796;28;20062;-53
2023/01/02 19:40:47;;;;;;;3.13;2.60;;;;;;;19.34;57.56;97361.97;10311620;28;20057;-55
2023/01/02 19:46:07;;;;;;;3.75;2.83;;;;;;;19.33;57.61;97356.88;10306233;28;20064;-54
2023/01/02 19:51:30;;;;;;;3.40;2.67;;;;;;;19.32;57.51;97352.56;10326485;28;20061;-54
2023/01/02 19:56:50;;;;;;;3.35;2.92;;;;;;;19.31;57.43;97368.00;10338345;28;20055;-55
2023/01/02 20:02:11;;;;;;;3.70;2.78;;;;;;;19.30;57.54;97371.78;10320967;28;20054;-54
2023/01/02 20:07:30;;;;;;;3.00;2.67;;;;;;;19.30;57.63;97385.28;10330769;28;20137;-54
2023/01/02 20:12:50;;;;;;;2.97;2.53;;;;;;;19.30;57.54;97389.91;10320977;28;20454;-55
2023/01/02 20:18:10;;;;;;;3.45;2.45;;;;;;;19.28;57.66;97387.50;10321411;28;20408;-56
2023/01/02 20:23:29;;;;;;;3.10;2.70;;;;;;;19.28;57.56;97386.72;10315435;28;20051;-51
2023/01/02 20:28:49;;;;;;;2.95;2.58;;;;;;;19.26;57.62;97399.75;10323724;28;20509;-56
2023/01/02 20:34:09;;;;;;;2.70;2.40;;;;;;;19.25;57.57;97409.75;10344831;28;20419;-56
2023/01/02 20:39:28;;;;;;;2.97;2.53;;;;;;;19.25;57.72;97417.03;10320785;28;20061;-54
2023/01/02 20:44:49;;;;;;;2.60;2.40;;;;;;;19.24;57.66;97413.53;10318895;28;20055;-54
2023/01/02 20:50:08;;;;;;;2.50;2.30;;;;;;;19.25;57.58;97427.84;10320457;28;20069;-54
2023/01/02 20:55:28;;;;;;;4.10;2.45;;;;;;;19.23;57.64;97427.34;10330667;28;20070;-47
2023/01/02 21:00:47;;;;;;;5.28;2.45;;;;;;;19.22;57.65;97423.84;10330660;28;20054;-54
2023/01/02 21:06:06;;;;;;;3.05;2.40;;;;;;;19.22;57.63;97421.16;10315209;28;20113;-55
2023/01/02 21:11:26;;;;;;;3.40;2.08;;;;;;;19.22;57.59;97421.16;10328263;28;20054;-54
2023/01/02 21:16:45;;;;;;;3.25;2.17;;;;;;;19.23;57.74;97421.94;10325084;28;20069;-51
2023/01/02 21:22:05;;;;;;;4.10;2.30;;;;;;;19.22;57.93;97420.38;10334078;28;20058;-52
2023/01/02 21:27:24;;;;;;;3.15;2.28;;;;;;;19.22;57.86;97421.16;10337436;28;20058;-51
2023/01/02 21:32:43;;;;;;;2.70;2.47;;;;;;;19.21;57.82;97422.28;10320167;28;20498;-48
2023/01/02 21:38:03;;;;;;;2.88;2.05;;;;;;;19.22;57.88;97445.47;10334623;28;20058;-54
2023/01/02 21:43:22;;;;;;;3.35;2.13;;;;;;;19.21;57.96;97446.59;10332166;28;20058;-54
2023/01/02 21:48:43;;;;;;;2.50;2.28;;;;;;;19.20;57.92;97455.00;10308143;28;20054;-52
2023/01/02 21:54:03;;;;;;;2.63;2.10;;;;;;;19.20;57.91;97453.09;10318377;28;20071;-48
2023/01/02 21:59:24;;;;;;;2.30;2.08;;;;;;;19.20;57.98;97455.00;10333464;28;20069;-53
2023/01/02 22:04:43;;;;;;;2.83;2.22;;;;;;;19.18;57.93;97452.59;10327329;28;20058;-54
2023/01/02 22:10:06;;;;;;;3.65;2.15;;;;;;;19.17;58.25;97457.19;10304558;28;20055;-54
2023/01/02 22:15:25;;;;;;;2.67;2.28;;;;;;;19.16;58.13;97460.19;10313180;28;20124;-52
2023/01/02 22:20:45;;;;;;;3.60;2.22;;;;;;;19.14;57.29;97468.59;10326009;28;20054;-53
2023/01/02 22:26:04;;;;;;;2.40;2.17;;;;;;;19.12;57.38;97467.31;10334353;28;20503;-53
2023/01/02 22:31:24;;;;;;;2.58;2.33;;;;;;;19.11;57.40;97469.22;10334224;28;20112;-53
2023/01/02 22:36:44;;;;;;;3.05;2.10;;;;;;;19.10;57.32;97483.81;10330796;28;20054;-53
2023/01/02 22:47:43;;;;;;;2.85;2.65;;;;;;;19.10;57.28;97502.72;10322515;28;20054;-52
2023/01/02 22:53:07;;;;;;;2.45;2.25;;;;;;;19.08;57.31;97499.53;10320271;28;20066;-54
2023/01/02 22:58:26;;;;;;;2.65;2.22;;;;;;;19.07;57.25;97502.53;10334699;28;20422;-53
2023/01/02 23:03:48;;;;;;;3.20;2.20;;;;;;;19.07;57.33;97513.31;10334189;28;20065;-52
2023/01/02 23:09:07;;;;;;;2.50;2.30;;;;;;;19.06;57.19;97517.94;10347313;28;20050;-52
2023/01/02 23:14:27;;;;;;;2.13;2.00;;;;;;;19.05;57.25;97520.94;10333586;28;20117;-54
2023/01/02 23:19:46;;;;;;;3.97;2.50;;;;;;;19.04;57.26;97516.66;10323076;28;20121;-52
2023/01/02 23:25:07;;;;;;;2.58;2.17;;;;;;;19.04;57.16;97519.34;10333104;28;20069;-53
2023/01/02 23:30:26;;;;;;;2.30;2.10;;;;;;;19.02;57.20;97530.44;10346280;28;20061;-52
2023/01/02 23:35:46;;;;;;;2.20;2.00;;;;;;;19.02;57.19;97535.06;10333011;28;20124;-52
2023/01/02 23:41:05;;;;;;;3.20;2.35;;;;;;;19.00;57.30;97538.06;10345716;28;20050;-54
2023/01/02 23:46:24;;;;;;;2.15;2.00;;;;;;;18.99;57.29;97549.94;10326676;28;20081;-53
2023/01/02 23:51:45;;;;;;;2.90;2.10;;;;;;;18.98;57.28;97542.97;10332908;28;20113;-53
2023/01/02 23:57:05;;;;;;;2.80;1.98;;;;;;;18.97;57.39;97552.16;10332022;28;20062;-53
